RJA511 OJAQ-HECA
Flight info
| Callsign | RJA511 |
|---|---|
| Flight time | 0h 56m |
| Altitude | 38000 |
| Route | ULINA DCT NOVPA DCT SISIK N697 MENLI DCT CVO |
| Aircraft | A20N/M-SDE2E3FGHIRWXY/LB1 |
Departure
| Time | 2026-04-21 17:12 |
|---|---|
| Airport | King Hussein International Airport (OJAQ) |
Arrival
| Time | 2026-04-21 18:08 |
|---|---|
| Airport | Cairo International Airport (HECA) |
| Time | Latitude | Longitude | Altitude | Speed | Heading |
|---|---|---|---|---|---|
| 2026-04-21 16:37 | 29.60967 | 35.02009 | 176 ft | 0 kts | 108° |
| 2026-04-21 17:03 | 29.60969 | 35.02004 | 176 ft | 1 kts | 108° |
| 2026-04-21 17:03 | 29.60971 | 35.01995 | 176 ft | 1 kts | 108° |
| 2026-04-21 17:03 | 29.60973 | 35.01989 | 176 ft | 1 kts | 108° |
| 2026-04-21 17:04 | 29.60976 | 35.01977 | 176 ft | 2 kts | 103° |
| 2026-04-21 17:04 | 29.60980 | 35.01965 | 176 ft | 2 kts | 128° |
| 2026-04-21 17:04 | 29.60988 | 35.01955 | 176 ft | 2 kts | 145° |
| 2026-04-21 17:04 | 29.60998 | 35.01949 | 176 ft | 2 kts | 167° |
| 2026-04-21 17:05 | 29.61009 | 35.01948 | 176 ft | 1 kts | 195° |
| 2026-04-21 17:07 | 29.61001 | 35.01946 | 176 ft | 5 kts | 196° |
| 2026-04-21 17:08 | 29.60963 | 35.01932 | 176 ft | 11 kts | 198° |
| 2026-04-21 17:08 | 29.60868 | 35.01898 | 176 ft | 17 kts | 197° |
| 2026-04-21 17:08 | 29.60737 | 35.01854 | 176 ft | 21 kts | 197° |
| 2026-04-21 17:08 | 29.60586 | 35.01800 | 176 ft | 25 kts | 197° |
| 2026-04-21 17:09 | 29.60202 | 35.01665 | 176 ft | 32 kts | 197° |
| 2026-04-21 17:09 | 29.59996 | 35.01594 | 176 ft | 30 kts | 197° |
| 2026-04-21 17:09 | 29.59812 | 35.01529 | 176 ft | 22 kts | 204° |
| 2026-04-21 17:10 | 29.59785 | 35.01463 | 176 ft | 5 kts | 292° |
| 2026-04-21 17:10 | 29.59802 | 35.01403 | 176 ft | 10 kts | 287° |
| 2026-04-21 17:10 | 29.59862 | 35.01353 | 175 ft | 13 kts | 4° |
| 2026-04-21 17:10 | 29.59919 | 35.01370 | 174 ft | 0 kts | 16° |
| 2026-04-21 17:11 | 29.59926 | 35.01372 | 174 ft | 14 kts | 16° |
| 2026-04-21 17:11 | 29.60352 | 35.01519 | 174 ft | 109 kts | 16° |
| 2026-04-21 17:11 | 29.61308 | 35.01839 | 329 ft | 168 kts | 15° |
| 2026-04-21 17:11 | 29.62559 | 35.02240 | 735 ft | 202 kts | 14° |
| 2026-04-21 17:12 | 29.63870 | 35.02692 | 2002 ft | 194 kts | 17° |
| 2026-04-21 17:12 | 29.65183 | 35.03156 | 2946 ft | 203 kts | 17° |
| 2026-04-21 17:12 | 29.66556 | 35.03651 | 3964 ft | 207 kts | 14° |
| 2026-04-21 17:12 | 29.67944 | 35.04142 | 5036 ft | 211 kts | 14° |
| 2026-04-21 17:13 | 29.69385 | 35.04382 | 6048 ft | 213 kts | 354° |
| 2026-04-21 17:13 | 29.70908 | 35.04250 | 6830 ft | 229 kts | 2° |
| 2026-04-21 17:13 | 29.72525 | 35.04608 | 7629 ft | 243 kts | 12° |
| 2026-04-21 17:13 | 29.74169 | 35.05180 | 8612 ft | 250 kts | 14° |
| 2026-04-21 17:14 | 29.75859 | 35.05776 | 9604 ft | 257 kts | 13° |
| 2026-04-21 17:14 | 29.77597 | 35.06340 | 10521 ft | 262 kts | 11° |
| 2026-04-21 17:14 | 29.79374 | 35.06876 | 11480 ft | 266 kts | 10° |
| 2026-04-21 17:14 | 29.81181 | 35.07396 | 12426 ft | 270 kts | 10° |
| 2026-04-21 17:15 | 29.83018 | 35.07914 | 13337 ft | 275 kts | 9° |
| 2026-04-21 17:15 | 29.84893 | 35.08440 | 14192 ft | 280 kts | 9° |
| 2026-04-21 17:15 | 29.86735 | 35.08956 | 14984 ft | 283 kts | 8° |
| 2026-04-21 17:15 | 29.88634 | 35.09702 | 15329 ft | 297 kts | 29° |
| 2026-04-21 17:16 | 29.90141 | 35.11421 | 15485 ft | 323 kts | 55° |
| 2026-04-21 17:16 | 29.91028 | 35.13873 | 15635 ft | 355 kts | 78° |
| 2026-04-21 17:16 | 29.91101 | 35.16778 | 15752 ft | 382 kts | 100° |
| 2026-04-21 17:16 | 29.90268 | 35.19732 | 15877 ft | 393 kts | 120° |
| 2026-04-21 17:17 | 29.88658 | 35.22235 | 15967 ft | 387 kts | 140° |
| 2026-04-21 17:17 | 29.86482 | 35.23988 | 15970 ft | 380 kts | 159° |
| 2026-04-21 17:17 | 29.83987 | 35.24807 | 15967 ft | 370 kts | 179° |
| 2026-04-21 17:17 | 29.81458 | 35.24622 | 15964 ft | 361 kts | 198° |
| 2026-04-21 17:18 | 29.79196 | 35.23478 | 15976 ft | 354 kts | 218° |
| 2026-04-21 17:18 | 29.77487 | 35.21482 | 16461 ft | 351 kts | 239° |
| 2026-04-21 17:18 | 29.76381 | 35.18991 | 17445 ft | 348 kts | 247° |
| 2026-04-21 17:18 | 29.75230 | 35.16523 | 18231 ft | 354 kts | 238° |
| 2026-04-21 17:19 | 29.73571 | 35.14398 | 18906 ft | 361 kts | 224° |
| 2026-04-21 17:19 | 29.71515 | 35.12700 | 19684 ft | 367 kts | 215° |
| 2026-04-21 17:19 | 29.69253 | 35.11292 | 20360 ft | 373 kts | 211° |
| 2026-04-21 17:19 | 29.66872 | 35.10027 | 21116 ft | 377 kts | 208° |
| 2026-04-21 17:20 | 29.64459 | 35.08815 | 21835 ft | 381 kts | 208° |
| 2026-04-21 17:20 | 29.62013 | 35.07598 | 22517 ft | 385 kts | 208° |
| 2026-04-21 17:20 | 29.59546 | 35.06362 | 23229 ft | 388 kts | 209° |
| 2026-04-21 17:20 | 29.57064 | 35.05110 | 23833 ft | 391 kts | 209° |
| 2026-04-21 17:21 | 29.54567 | 35.03845 | 24427 ft | 393 kts | 209° |
| 2026-04-21 17:21 | 29.52060 | 35.02573 | 25011 ft | 395 kts | 210° |
| 2026-04-21 17:21 | 29.49540 | 35.01293 | 25604 ft | 397 kts | 210° |
| 2026-04-21 17:21 | 29.47003 | 35.00004 | 26153 ft | 400 kts | 210° |
| 2026-04-21 17:22 | 29.44490 | 34.98729 | 26675 ft | 402 kts | 210° |
| 2026-04-21 17:22 | 29.41943 | 34.97366 | 27223 ft | 401 kts | 214° |
| 2026-04-21 17:22 | 29.39526 | 34.95708 | 27721 ft | 399 kts | 220° |
| 2026-04-21 17:22 | 29.37272 | 34.93914 | 28200 ft | 400 kts | 220° |
| 2026-04-21 17:23 | 29.34973 | 34.92087 | 28692 ft | 402 kts | 220° |
| 2026-04-21 17:23 | 29.32662 | 34.90259 | 29130 ft | 405 kts | 220° |
| 2026-04-21 17:23 | 29.30341 | 34.88428 | 29575 ft | 407 kts | 220° |
| 2026-04-21 17:23 | 29.28000 | 34.86584 | 30006 ft | 409 kts | 220° |
| 2026-04-21 17:24 | 29.25653 | 34.84736 | 30394 ft | 410 kts | 221° |
| 2026-04-21 17:24 | 29.23296 | 34.82882 | 30785 ft | 412 kts | 221° |
| 2026-04-21 17:24 | 29.20926 | 34.81018 | 31198 ft | 413 kts | 221° |
| 2026-04-21 17:24 | 29.18563 | 34.79162 | 31656 ft | 412 kts | 221° |
| 2026-04-21 17:25 | 29.16208 | 34.77314 | 32188 ft | 409 kts | 221° |
| 2026-04-21 17:25 | 29.13861 | 34.75474 | 32707 ft | 407 kts | 221° |
| 2026-04-21 17:25 | 29.11663 | 34.73499 | 33219 ft | 397 kts | 230° |
| 2026-04-21 17:25 | 29.09832 | 34.71201 | 33698 ft | 388 kts | 238° |
| 2026-04-21 17:26 | 29.08376 | 34.68629 | 34148 ft | 381 kts | 246° |
| 2026-04-21 17:26 | 29.07317 | 34.65884 | 34528 ft | 375 kts | 253° |
| 2026-04-21 17:26 | 29.06647 | 34.63016 | 34853 ft | 374 kts | 261° |
| 2026-04-21 17:26 | 29.06375 | 34.60099 | 35167 ft | 374 kts | 268° |
| 2026-04-21 17:27 | 29.06495 | 34.57140 | 35538 ft | 374 kts | 275° |
| 2026-04-21 17:27 | 29.07010 | 34.54221 | 35893 ft | 375 kts | 282° |
| 2026-04-21 17:27 | 29.07734 | 34.51728 | 36185 ft | 376 kts | 284° |
| 2026-04-21 17:27 | 29.08575 | 34.48904 | 36524 ft | 375 kts | 284° |
| 2026-04-21 17:28 | 29.09403 | 34.46092 | 36866 ft | 373 kts | 284° |
| 2026-04-21 17:28 | 29.10230 | 34.43270 | 37202 ft | 372 kts | 284° |
| 2026-04-21 17:28 | 29.11049 | 34.40467 | 37521 ft | 371 kts | 284° |
| 2026-04-21 17:28 | 29.11863 | 34.37679 | 37798 ft | 370 kts | 284° |
| 2026-04-21 17:29 | 29.12678 | 34.34889 | 37933 ft | 368 kts | 284° |
| 2026-04-21 17:29 | 29.13486 | 34.32118 | 37994 ft | 367 kts | 284° |
| 2026-04-21 17:29 | 29.15102 | 34.26575 | 38003 ft | 367 kts | 284° |
| 2026-04-21 17:30 | 29.16711 | 34.21049 | 38013 ft | 366 kts | 284° |
| 2026-04-21 17:30 | 29.18323 | 34.15498 | 38011 ft | 367 kts | 284° |
| 2026-04-21 17:31 | 29.19932 | 34.09954 | 38018 ft | 366 kts | 284° |
| 2026-04-21 17:31 | 29.21534 | 34.04420 | 38005 ft | 366 kts | 284° |
| 2026-04-21 17:32 | 29.23133 | 33.98888 | 38000 ft | 366 kts | 284° |
| 2026-04-21 17:32 | 29.24704 | 33.93437 | 38011 ft | 366 kts | 284° |
| 2026-04-21 17:33 | 29.26297 | 33.87907 | 38001 ft | 366 kts | 284° |
| 2026-04-21 17:33 | 29.27887 | 33.82376 | 38012 ft | 366 kts | 284° |
| 2026-04-21 17:34 | 29.29464 | 33.76881 | 38002 ft | 366 kts | 284° |
| 2026-04-21 17:34 | 29.31049 | 33.71346 | 38007 ft | 366 kts | 284° |
| 2026-04-21 17:35 | 29.32636 | 33.65794 | 38011 ft | 367 kts | 284° |
| 2026-04-21 17:35 | 29.34221 | 33.60242 | 38018 ft | 367 kts | 284° |
| 2026-04-21 17:36 | 29.35806 | 33.54678 | 38013 ft | 367 kts | 284° |
| 2026-04-21 17:36 | 29.37290 | 33.49462 | 38023 ft | 368 kts | 284° |
| 2026-04-21 17:37 | 29.38874 | 33.43886 | 38017 ft | 368 kts | 284° |
| 2026-04-21 17:37 | 29.40455 | 33.38309 | 38020 ft | 368 kts | 284° |
| 2026-04-21 17:38 | 29.42035 | 33.32724 | 38015 ft | 368 kts | 284° |
| 2026-04-21 17:38 | 29.43611 | 33.27141 | 38020 ft | 368 kts | 284° |
| 2026-04-21 17:39 | 29.45184 | 33.21565 | 38021 ft | 367 kts | 284° |
| 2026-04-21 17:39 | 29.46753 | 33.15988 | 38017 ft | 368 kts | 284° |
| 2026-04-21 17:40 | 29.48326 | 33.10389 | 38021 ft | 368 kts | 284° |
| 2026-04-21 17:40 | 29.49895 | 33.04794 | 37947 ft | 367 kts | 284° |
| 2026-04-21 17:41 | 29.50668 | 33.02034 | 37595 ft | 369 kts | 284° |
| 2026-04-21 17:41 | 29.51453 | 32.99224 | 37020 ft | 371 kts | 284° |
| 2026-04-21 17:41 | 29.52240 | 32.96408 | 36442 ft | 372 kts | 284° |
| 2026-04-21 17:41 | 29.53032 | 32.93572 | 35867 ft | 374 kts | 284° |
| 2026-04-21 17:42 | 29.53829 | 32.90713 | 35318 ft | 377 kts | 284° |
| 2026-04-21 17:42 | 29.54630 | 32.87835 | 34775 ft | 380 kts | 284° |
| 2026-04-21 17:42 | 29.55440 | 32.84924 | 34202 ft | 384 kts | 284° |
| 2026-04-21 17:42 | 29.56254 | 32.81998 | 33541 ft | 386 kts | 284° |
| 2026-04-21 17:43 | 29.57075 | 32.79046 | 32840 ft | 390 kts | 284° |
| 2026-04-21 17:43 | 29.57902 | 32.76065 | 32125 ft | 394 kts | 284° |
| 2026-04-21 17:43 | 29.58739 | 32.73046 | 31393 ft | 398 kts | 285° |
| 2026-04-21 17:43 | 29.59582 | 32.70004 | 30671 ft | 403 kts | 285° |
| 2026-04-21 17:44 | 29.60359 | 32.66910 | 29942 ft | 403 kts | 282° |
| 2026-04-21 17:44 | 29.61052 | 32.63797 | 29121 ft | 402 kts | 282° |
| 2026-04-21 17:44 | 29.61639 | 32.61223 | 28454 ft | 400 kts | 283° |
| 2026-04-21 17:44 | 29.62345 | 32.58140 | 27664 ft | 398 kts | 283° |
| 2026-04-21 17:45 | 29.63045 | 32.55075 | 26909 ft | 395 kts | 283° |
| 2026-04-21 17:45 | 29.63737 | 32.52038 | 26168 ft | 393 kts | 283° |
| 2026-04-21 17:45 | 29.64425 | 32.49001 | 25441 ft | 391 kts | 283° |
| 2026-04-21 17:45 | 29.65107 | 32.45984 | 24735 ft | 389 kts | 283° |
| 2026-04-21 17:46 | 29.65785 | 32.42983 | 24054 ft | 387 kts | 283° |
| 2026-04-21 17:46 | 29.66455 | 32.40009 | 23341 ft | 385 kts | 283° |
| 2026-04-21 17:46 | 29.67126 | 32.37031 | 22534 ft | 384 kts | 283° |
| 2026-04-21 17:46 | 29.67794 | 32.34066 | 21760 ft | 382 kts | 283° |
| 2026-04-21 17:47 | 29.68458 | 32.31112 | 20999 ft | 380 kts | 284° |
| 2026-04-21 17:47 | 29.69110 | 32.28212 | 20270 ft | 378 kts | 284° |
| 2026-04-21 17:47 | 29.69766 | 32.25288 | 19543 ft | 376 kts | 284° |
| 2026-04-21 17:47 | 29.70414 | 32.22394 | 18814 ft | 372 kts | 284° |
| 2026-04-21 17:48 | 29.70842 | 32.20483 | 18339 ft | 366 kts | 284° |
| 2026-04-21 17:48 | 29.71676 | 32.16754 | 17280 ft | 356 kts | 284° |
| 2026-04-21 17:48 | 29.72293 | 32.13994 | 16484 ft | 357 kts | 284° |
| 2026-04-21 17:48 | 29.72911 | 32.11226 | 15711 ft | 357 kts | 284° |
| 2026-04-21 17:49 | 29.73528 | 32.08456 | 14967 ft | 358 kts | 284° |
| 2026-04-21 17:49 | 29.74146 | 32.05681 | 14236 ft | 358 kts | 284° |
| 2026-04-21 17:49 | 29.74764 | 32.02906 | 13475 ft | 358 kts | 284° |
| 2026-04-21 17:49 | 29.75380 | 32.00132 | 12660 ft | 358 kts | 285° |
| 2026-04-21 17:50 | 29.75996 | 31.97355 | 11901 ft | 358 kts | 285° |
| 2026-04-21 17:50 | 29.76611 | 31.94582 | 11140 ft | 358 kts | 285° |
| 2026-04-21 17:50 | 29.77226 | 31.91805 | 10397 ft | 357 kts | 285° |
| 2026-04-21 17:50 | 29.77864 | 31.89037 | 9669 ft | 356 kts | 289° |
| 2026-04-21 17:51 | 29.78479 | 31.86342 | 9369 ft | 343 kts | 276° |
| 2026-04-21 17:51 | 29.78355 | 31.83656 | 9176 ft | 329 kts | 265° |
| 2026-04-21 17:51 | 29.78084 | 31.81103 | 9035 ft | 314 kts | 264° |
| 2026-04-21 17:51 | 29.77821 | 31.78681 | 8977 ft | 297 kts | 264° |
| 2026-04-21 17:52 | 29.77572 | 31.76417 | 8916 ft | 281 kts | 265° |
| 2026-04-21 17:52 | 29.77322 | 31.74176 | 8866 ft | 285 kts | 265° |
| 2026-04-21 17:52 | 29.77069 | 31.71910 | 8811 ft | 285 kts | 265° |
| 2026-04-21 17:52 | 29.76816 | 31.69662 | 8753 ft | 283 kts | 264° |
| 2026-04-21 17:53 | 29.76565 | 31.67411 | 8708 ft | 283 kts | 264° |
| 2026-04-21 17:53 | 29.76314 | 31.65160 | 8628 ft | 284 kts | 264° |
| 2026-04-21 17:53 | 29.76062 | 31.62907 | 8484 ft | 284 kts | 264° |
| 2026-04-21 17:53 | 29.75811 | 31.60662 | 8333 ft | 283 kts | 264° |
| 2026-04-21 17:54 | 29.75559 | 31.58421 | 8177 ft | 281 kts | 265° |
| 2026-04-21 17:54 | 29.75309 | 31.56195 | 8028 ft | 281 kts | 265° |
| 2026-04-21 17:54 | 29.75142 | 31.54717 | 7936 ft | 281 kts | 264° |
| 2026-04-21 17:54 | 29.74891 | 31.52489 | 7762 ft | 281 kts | 265° |
| 2026-04-21 17:55 | 29.74639 | 31.50262 | 7595 ft | 280 kts | 264° |
| 2026-04-21 17:55 | 29.74389 | 31.48035 | 7419 ft | 280 kts | 264° |
| 2026-04-21 17:55 | 29.74138 | 31.45822 | 7246 ft | 276 kts | 265° |
| 2026-04-21 17:55 | 29.73899 | 31.43676 | 7078 ft | 266 kts | 264° |
| 2026-04-21 17:56 | 29.73664 | 31.41610 | 6972 ft | 254 kts | 264° |
| 2026-04-21 17:56 | 29.73436 | 31.39612 | 6701 ft | 252 kts | 265° |
| 2026-04-21 17:56 | 29.73256 | 31.38001 | 6477 ft | 279 kts | 265° |
| 2026-04-21 17:56 | 29.73007 | 31.35755 | 6096 ft | 284 kts | 264° |
| 2026-04-21 17:57 | 29.72769 | 31.33534 | 5687 ft | 282 kts | 267° |
| 2026-04-21 17:57 | 29.73007 | 31.31345 | 5287 ft | 275 kts | 293° |
| 2026-04-21 17:57 | 29.73940 | 31.29459 | 4894 ft | 271 kts | 304° |
| 2026-04-21 17:57 | 29.74969 | 31.27629 | 4460 ft | 271 kts | 304° |
| 2026-04-21 17:58 | 29.75987 | 31.25816 | 4042 ft | 270 kts | 304° |
| 2026-04-21 17:58 | 29.77005 | 31.23997 | 3589 ft | 270 kts | 304° |
| 2026-04-21 17:58 | 29.78019 | 31.22186 | 3153 ft | 270 kts | 305° |
| 2026-04-21 17:58 | 29.79031 | 31.20363 | 2746 ft | 268 kts | 304° |
| 2026-04-21 17:59 | 29.80005 | 31.18584 | 2572 ft | 257 kts | 304° |
| 2026-04-21 17:59 | 29.80947 | 31.16860 | 2504 ft | 256 kts | 305° |
| 2026-04-21 17:59 | 29.81903 | 31.15117 | 2506 ft | 257 kts | 310° |
| 2026-04-21 17:59 | 29.83258 | 31.13863 | 2503 ft | 249 kts | 338° |
| 2026-04-21 18:00 | 29.84949 | 31.13554 | 2503 ft | 250 kts | 7° |
| 2026-04-21 18:00 | 29.86555 | 31.14254 | 2500 ft | 250 kts | 34° |
| 2026-04-21 18:00 | 29.87912 | 31.15515 | 2513 ft | 252 kts | 39° |
| 2026-04-21 18:00 | 29.89241 | 31.16805 | 2514 ft | 250 kts | 37° |
| 2026-04-21 18:01 | 29.90619 | 31.18055 | 2511 ft | 252 kts | 36° |
| 2026-04-21 18:01 | 29.92010 | 31.19244 | 2514 ft | 250 kts | 34° |
| 2026-04-21 18:01 | 29.93434 | 31.20410 | 2509 ft | 251 kts | 33° |
| 2026-04-21 18:01 | 29.94862 | 31.21562 | 2510 ft | 250 kts | 33° |
| 2026-04-21 18:02 | 29.96284 | 31.22697 | 2510 ft | 250 kts | 33° |
| 2026-04-21 18:02 | 29.97661 | 31.23860 | 2512 ft | 239 kts | 37° |
| 2026-04-21 18:02 | 29.98848 | 31.25114 | 2514 ft | 223 kts | 43° |
| 2026-04-21 18:02 | 29.99862 | 31.26373 | 2515 ft | 206 kts | 46° |
| 2026-04-21 18:03 | 30.00774 | 31.27572 | 2517 ft | 191 kts | 46° |
| 2026-04-21 18:03 | 30.01590 | 31.28657 | 2515 ft | 165 kts | 46° |
| 2026-04-21 18:03 | 30.02279 | 31.29578 | 2508 ft | 139 kts | 46° |
| 2026-04-21 18:03 | 30.02879 | 31.30374 | 2499 ft | 129 kts | 45° |
| 2026-04-21 18:04 | 30.03452 | 31.31136 | 2330 ft | 123 kts | 45° |
| 2026-04-21 18:04 | 30.04004 | 31.31871 | 2167 ft | 120 kts | 46° |
| 2026-04-21 18:04 | 30.04553 | 31.32602 | 2003 ft | 121 kts | 44° |
| 2026-04-21 18:04 | 30.05099 | 31.33332 | 1852 ft | 118 kts | 44° |
| 2026-04-21 18:05 | 30.05631 | 31.34041 | 1695 ft | 117 kts | 43° |
| 2026-04-21 18:05 | 30.06167 | 31.34756 | 1526 ft | 117 kts | 44° |
| 2026-04-21 18:05 | 30.06707 | 31.35475 | 1378 ft | 121 kts | 44° |
| 2026-04-21 18:05 | 30.07253 | 31.36204 | 1215 ft | 120 kts | 45° |
| 2026-04-21 18:06 | 30.07812 | 31.36950 | 1065 ft | 123 kts | 45° |
| 2026-04-21 18:06 | 30.08367 | 31.37693 | 904 ft | 121 kts | 44° |
| 2026-04-21 18:06 | 30.08908 | 31.38416 | 740 ft | 120 kts | 44° |
| 2026-04-21 18:06 | 30.09463 | 31.39154 | 584 ft | 123 kts | 44° |
| 2026-04-21 18:07 | 30.10017 | 31.39895 | 416 ft | 121 kts | 44° |
| 2026-04-21 18:07 | 30.10448 | 31.40449 | 377 ft | 103 kts | 47° |
| 2026-04-21 18:07 | 30.10850 | 31.40982 | 371 ft | 78 kts | 47° |
| 2026-04-21 18:07 | 30.11158 | 31.41398 | 373 ft | 54 kts | 49° |
| 2026-04-21 18:08 | 30.11415 | 31.41600 | 374 ft | 28 kts | 19° |
| 2026-04-21 18:08 | 30.11539 | 31.41626 | 374 ft | 12 kts | 336° |
| 2026-04-21 18:08 | 30.11551 | 31.41535 | 374 ft | 14 kts | 237° |
| 2026-04-21 18:08 | 30.11477 | 31.41433 | 374 ft | 19 kts | 229° |
| 2026-04-21 18:09 | 30.11380 | 31.41303 | 374 ft | 23 kts | 228° |
| 2026-04-21 18:09 | 30.11264 | 31.41151 | 374 ft | 27 kts | 230° |
| 2026-04-21 18:09 | 30.11132 | 31.40977 | 374 ft | 30 kts | 229° |
| 2026-04-21 18:09 | 30.10988 | 31.40784 | 374 ft | 32 kts | 229° |
| 2026-04-21 18:10 | 30.10842 | 31.40591 | 374 ft | 33 kts | 229° |
| 2026-04-21 18:10 | 30.10716 | 31.40423 | 374 ft | 19 kts | 229° |
| 2026-04-21 18:10 | 30.10698 | 31.40311 | 374 ft | 15 kts | 307° |
| 2026-04-21 18:10 | 30.10670 | 31.40206 | 374 ft | 17 kts | 228° |
| 2026-04-21 18:11 | 30.10582 | 31.40091 | 374 ft | 21 kts | 230° |
| 2026-04-21 18:11 | 30.10490 | 31.39961 | 374 ft | 18 kts | 245° |
| 2026-04-21 18:11 | 30.10548 | 31.39856 | 374 ft | 18 kts | 344° |
| 2026-04-21 18:11 | 30.10669 | 31.39817 | 374 ft | 17 kts | 344° |
| 2026-04-21 18:12 | 30.10756 | 31.39782 | 374 ft | 9 kts | 305° |
| 2026-04-21 18:12 | 30.10748 | 31.39710 | 374 ft | 7 kts | 255° |
| 2026-04-21 18:12 | 30.10744 | 31.39693 | 374 ft | 0 kts | 255° |